sensor_id;sensor_type;location;lat;lon;timestamp;pressure;altitude;pressure_sealevel;temperature;humidity
11830;BME280;5972;42.134;24.718;2024-02-26T00:00:08;99339.44;;;11.23;100.00
11830;BME280;5972;42.134;24.718;2024-02-26T00:02:35;99343.00;;;11.27;100.00
11830;BME280;5972;42.134;24.718;2024-02-26T00:05:06;99339.34;;;11.35;100.00
11830;BME280;5972;42.134;24.718;2024-02-26T00:07:34;99342.72;;;11.32;100.00
11830;BME280;5972;42.134;24.718;2024-02-26T00:10:00;99338.38;;;11.27;100.00
11830;BME280;5972;42.134;24.718;2024-02-26T00:12:27;99345.09;;;11.34;100.00
11830;BME280;5972;42.134;24.718;2024-02-26T00:14:54;99332.63;;;11.29;100.00
11830;BME280;5972;42.134;24.718;2024-02-26T00:17:23;99331.91;;;11.32;100.00
11830;BME280;5972;42.134;24.718;2024-02-26T00:19:51;99333.56;;;11.21;100.00
11830;BME280;5972;42.134;24.718;2024-02-26T00:22:19;99306.88;;;11.19;100.00
11830;BME280;5972;42.134;24.718;2024-02-26T00:24:47;99307.56;;;11.16;100.00
11830;BME280;5972;42.134;24.718;2024-02-26T00:27:14;99356.75;;;11.18;100.00
11830;BME280;5972;42.134;24.718;2024-02-26T00:29:41;99316.41;;;10.82;100.00
11830;BME280;5972;42.134;24.718;2024-02-26T00:32:08;99341.91;;;11.12;100.00
11830;BME280;5972;42.134;24.718;2024-02-26T00:34:35;99332.53;;;11.10;100.00
11830;BME280;5972;42.134;24.718;2024-02-26T00:37:02;99344.59;;;11.12;100.00
11830;BME280;5972;42.134;24.718;2024-02-26T00:39:30;99337.44;;;11.04;100.00
11830;BME280;5972;42.134;24.718;2024-02-26T00:41:57;99365.81;;;11.10;100.00
11830;BME280;5972;42.134;24.718;2024-02-26T00:44:24;99350.47;;;11.14;100.00
11830;BME280;5972;42.134;24.718;2024-02-26T00:46:51;99316.13;;;11.18;100.00
11830;BME280;5972;42.134;24.718;2024-02-26T00:49:18;99292.88;;;11.17;100.00
11830;BME280;5972;42.134;24.718;2024-02-26T00:51:45;99279.22;;;10.95;100.00
11830;BME280;5972;42.134;24.718;2024-02-26T00:54:12;99258.22;;;10.57;100.00
11830;BME280;5972;42.134;24.718;2024-02-26T00:56:40;99290.03;;;10.32;100.00
11830;BME280;5972;42.134;24.718;2024-02-26T00:59:07;99273.13;;;10.35;100.00
11830;BME280;5972;42.134;24.718;2024-02-26T01:01:34;99245.28;;;10.50;100.00
11830;BME280;5972;42.134;24.718;2024-02-26T01:04:01;99257.41;;;10.72;100.00
11830;BME280;5972;42.134;24.718;2024-02-26T01:06:29;99304.63;;;10.90;100.00
11830;BME280;5972;42.134;24.718;2024-02-26T01:08:56;99312.38;;;11.07;100.00
11830;BME280;5972;42.134;24.718;2024-02-26T01:11:23;99275.34;;;11.11;100.00
11830;BME280;5972;42.134;24.718;2024-02-26T01:13:51;99268.56;;;11.37;100.00
11830;BME280;5972;42.134;24.718;2024-02-26T01:16:22;99283.66;;;11.38;100.00
11830;BME280;5972;42.134;24.718;2024-02-26T01:18:49;99276.53;;;11.30;100.00
11830;BME280;5972;42.134;24.718;2024-02-26T01:21:16;99271.50;;;11.47;100.00
11830;BME280;5972;42.134;24.718;2024-02-26T01:23:43;99272.63;;;11.65;100.00
11830;BME280;5972;42.134;24.718;2024-02-26T01:26:10;99280.28;;;11.79;100.00
11830;BME280;5972;42.134;24.718;2024-02-26T01:28:37;99291.00;;;11.91;100.00
11830;BME280;5972;42.134;24.718;2024-02-26T01:31:05;99293.81;;;11.98;100.00
11830;BME280;5972;42.134;24.718;2024-02-26T01:33:34;99289.38;;;12.09;100.00
11830;BME280;5972;42.134;24.718;2024-02-26T01:36:01;99293.06;;;11.98;100.00
11830;BME280;5972;42.134;24.718;2024-02-26T01:38:28;99297.41;;;12.02;100.00
11830;BME280;5972;42.134;24.718;2024-02-26T01:40:55;99295.00;;;11.97;100.00
11830;BME280;5972;42.134;24.718;2024-02-26T01:43:22;99303.28;;;11.85;100.00
11830;BME280;5972;42.134;24.718;2024-02-26T01:45:49;99289.75;;;11.70;100.00
11830;BME280;5972;42.134;24.718;2024-02-26T01:48:17;99297.88;;;11.70;100.00
11830;BME280;5972;42.134;24.718;2024-02-26T01:50:48;99298.88;;;11.61;100.00
11830;BME280;5972;42.134;24.718;2024-02-26T01:53:15;99303.72;;;11.52;100.00
11830;BME280;5972;42.134;24.718;2024-02-26T01:55:43;99296.16;;;11.42;100.00
11830;BME280;5972;42.134;24.718;2024-02-26T01:58:10;99294.88;;;11.36;100.00
11830;BME280;5972;42.134;24.718;2024-02-26T02:00:37;99297.19;;;11.38;100.00
11830;BME280;5972;42.134;24.718;2024-02-26T02:03:06;99290.22;;;11.37;100.00
11830;BME280;5972;42.134;24.718;2024-02-26T02:05:34;99293.19;;;11.32;100.00
11830;BME280;5972;42.134;24.718;2024-02-26T02:08:07;99290.84;;;11.30;100.00
11830;BME280;5972;42.134;24.718;2024-02-26T02:10:34;99278.28;;;11.22;100.00
11830;BME280;5972;42.134;24.718;2024-02-26T02:13:02;99288.31;;;11.21;100.00
11830;BME280;5972;42.134;24.718;2024-02-26T02:15:29;99272.88;;;11.22;100.00
11830;BME280;5972;42.134;24.718;2024-02-26T02:17:57;99277.50;;;11.21;100.00
11830;BME280;5972;42.134;24.718;2024-02-26T02:20:26;99262.06;;;11.06;100.00
11830;BME280;5972;42.134;24.718;2024-02-26T02:22:58;99265.03;;;11.17;100.00
11830;BME280;5972;42.134;24.718;2024-02-26T02:25:25;99260.44;;;11.02;100.00
11830;BME280;5972;42.134;24.718;2024-02-26T02:27:53;99275.09;;;11.01;100.00
11830;BME280;5972;42.134;24.718;2024-02-26T02:30:21;99276.50;;;10.95;100.00
11830;BME280;5972;42.134;24.718;2024-02-26T02:32:49;99283.84;;;10.94;100.00
11830;BME280;5972;42.134;24.718;2024-02-26T02:35:17;99271.72;;;10.88;100.00
11830;BME280;5972;42.134;24.718;2024-02-26T02:37:48;99286.91;;;10.77;100.00
11830;BME280;5972;42.134;24.718;2024-02-26T02:40:15;99286.91;;;10.77;100.00
11830;BME280;5972;42.134;24.718;2024-02-26T02:42:42;99271.91;;;10.79;100.00
11830;BME280;5972;42.134;24.718;2024-02-26T02:45:09;99275.53;;;10.87;100.00
11830;BME280;5972;42.134;24.718;2024-02-26T02:47:36;99295.78;;;10.93;100.00
11830;BME280;5972;42.134;24.718;2024-02-26T02:50:05;99291.53;;;10.92;100.00
11830;BME280;5972;42.134;24.718;2024-02-26T02:52:32;99290.38;;;10.93;100.00
11830;BME280;5972;42.134;24.718;2024-02-26T02:55:01;99272.75;;;10.83;100.00
11830;BME280;5972;42.134;24.718;2024-02-26T02:57:28;99288.56;;;10.97;100.00
11830;BME280;5972;42.134;24.718;2024-02-26T02:59:56;99290.66;;;10.88;100.00
11830;BME280;5972;42.134;24.718;2024-02-26T03:02:23;99297.84;;;10.80;100.00
11830;BME280;5972;42.134;24.718;2024-02-26T03:04:50;99299.91;;;10.71;100.00
11830;BME280;5972;42.134;24.718;2024-02-26T03:07:17;99294.25;;;10.76;100.00
11830;BME280;5972;42.134;24.718;2024-02-26T03:09:44;99303.66;;;10.82;100.00
11830;BME280;5972;42.134;24.718;2024-02-26T03:12:12;99302.19;;;10.85;100.00
11830;BME280;5972;42.134;24.718;2024-02-26T03:14:39;99272.25;;;10.62;100.00
11830;BME280;5972;42.134;24.718;2024-02-26T03:17:06;99302.88;;;10.82;100.00
11830;BME280;5972;42.134;24.718;2024-02-26T03:19:33;99302.53;;;10.83;100.00
11830;BME280;5972;42.134;24.718;2024-02-26T03:22:00;99300.53;;;10.80;100.00
11830;BME280;5972;42.134;24.718;2024-02-26T03:24:27;99301.41;;;10.53;100.00
11830;BME280;5972;42.134;24.718;2024-02-26T03:26:54;99304.47;;;10.52;100.00
11830;BME280;5972;42.134;24.718;2024-02-26T03:29:23;99298.06;;;10.60;100.00
11830;BME280;5972;42.134;24.718;2024-02-26T03:31:50;99301.69;;;10.64;100.00
11830;BME280;5972;42.134;24.718;2024-02-26T03:34:17;99294.69;;;10.63;100.00
11830;BME280;5972;42.134;24.718;2024-02-26T03:36:45;99305.25;;;10.68;100.00
11830;BME280;5972;42.134;24.718;2024-02-26T03:39:12;99305.94;;;10.65;100.00
11830;BME280;5972;42.134;24.718;2024-02-26T03:41:39;99312.59;;;10.67;100.00
11830;BME280;5972;42.134;24.718;2024-02-26T03:44:06;99305.78;;;10.73;100.00
11830;BME280;5972;42.134;24.718;2024-02-26T03:46:34;99281.06;;;10.59;100.00
11830;BME280;5972;42.134;24.718;2024-02-26T03:49:01;99303.00;;;10.70;100.00
11830;BME280;5972;42.134;24.718;2024-02-26T03:51:31;99304.19;;;10.72;100.00
11830;BME280;5972;42.134;24.718;2024-02-26T03:53:58;99293.97;;;10.50;100.00
11830;BME280;5972;42.134;24.718;2024-02-26T03:56:25;99303.41;;;10.56;100.00
11830;BME280;5972;42.134;24.718;2024-02-26T03:58:53;99301.22;;;10.62;100.00
11830;BME280;5972;42.134;24.718;2024-02-26T04:01:20;99310.94;;;10.63;100.00
11830;BME280;5972;42.134;24.718;2024-02-26T04:03:48;99298.88;;;10.60;100.00
11830;BME280;5972;42.134;24.718;2024-02-26T04:06:15;99314.06;;;10.65;100.00
11830;BME280;5972;42.134;24.718;2024-02-26T04:08:43;99301.31;;;10.50;100.00
11830;BME280;5972;42.134;24.718;2024-02-26T04:11:10;99318.78;;;10.68;100.00
11830;BME280;5972;42.134;24.718;2024-02-26T04:13:37;99285.59;;;10.55;100.00
11830;BME280;5972;42.134;24.718;2024-02-26T04:16:05;99321.03;;;10.50;100.00
11830;BME280;5972;42.134;24.718;2024-02-26T04:18:32;99299.25;;;10.59;100.00
11830;BME280;5972;42.134;24.718;2024-02-26T04:21:00;99285.41;;;10.48;100.00
11830;BME280;5972;42.134;24.718;2024-02-26T04:23:27;99310.41;;;10.57;100.00
11830;BME280;5972;42.134;24.718;2024-02-26T04:25:54;99310.28;;;10.54;100.00
11830;BME280;5972;42.134;24.718;2024-02-26T04:28:21;99288.03;;;10.45;100.00
11830;BME280;5972;42.134;24.718;2024-02-26T04:30:51;99314.31;;;10.60;100.00
11830;BME280;5972;42.134;24.718;2024-02-26T04:33:18;99308.47;;;10.58;100.00
11830;BME280;5972;42.134;24.718;2024-02-26T04:35:44;99309.16;;;10.70;100.00
11830;BME280;5972;42.134;24.718;2024-02-26T04:38:13;99316.53;;;10.70;100.00
11830;BME280;5972;42.134;24.718;2024-02-26T04:40:40;99315.81;;;10.73;100.00
11830;BME280;5972;42.134;24.718;2024-02-26T04:43:07;99312.59;;;10.67;100.00
11830;BME280;5972;42.134;24.718;2024-02-26T04:45:34;99313.97;;;10.61;100.00
11830;BME280;5972;42.134;24.718;2024-02-26T04:48:01;99312.91;;;10.66;100.00
11830;BME280;5972;42.134;24.718;2024-02-26T04:50:28;99317.28;;;10.70;100.00
11830;BME280;5972;42.134;24.718;2024-02-26T04:52:56;99305.69;;;10.70;100.00
11830;BME280;5972;42.134;24.718;2024-02-26T04:55:25;99263.69;;;10.45;100.00
11830;BME280;5972;42.134;24.718;2024-02-26T04:57:52;99316.25;;;10.75;100.00
11830;BME280;5972;42.134;24.718;2024-02-26T05:00:19;99314.75;;;10.62;100.00
11830;BME280;5972;42.134;24.718;2024-02-26T05:02:48;99311.88;;;10.70;100.00
11830;BME280;5972;42.134;24.718;2024-02-26T05:05:15;99328.47;;;10.84;100.00
11830;BME280;5972;42.134;24.718;2024-02-26T05:07:43;99325.69;;;10.81;100.00
11830;BME280;5972;42.134;24.718;2024-02-26T05:10:10;99326.56;;;10.85;100.00
11830;BME280;5972;42.134;24.718;2024-02-26T05:12:39;99323.31;;;10.95;100.00
11830;BME280;5972;42.134;24.718;2024-02-26T05:15:12;99328.22;;;10.90;100.00
11830;BME280;5972;42.134;24.718;2024-02-26T05:17:43;99295.63;;;10.70;100.00
11830;BME280;5972;42.134;24.718;2024-02-26T05:20:11;99316.16;;;10.87;100.00
11830;BME280;5972;42.134;24.718;2024-02-26T05:22:38;99308.94;;;10.75;100.00
11830;BME280;5972;42.134;24.718;2024-02-26T05:25:06;99333.16;;;10.88;100.00
11830;BME280;5972;42.134;24.718;2024-02-26T05:27:33;99319.38;;;10.77;100.00
11830;BME280;5972;42.134;24.718;2024-02-26T05:30:02;99337.56;;;10.92;100.00
11830;BME280;5972;42.134;24.718;2024-02-26T05:32:29;99329.34;;;10.89;100.00
11830;BME280;5972;42.134;24.718;2024-02-26T05:34:56;99326.63;;;10.89;100.00
11830;BME280;5972;42.134;24.718;2024-02-26T05:37:23;99331.25;;;10.88;100.00
11830;BME280;5972;42.134;24.718;2024-02-26T05:39:50;99345.94;;;11.03;100.00
11830;BME280;5972;42.134;24.718;2024-02-26T05:42:17;99331.88;;;10.97;100.00
11830;BME280;5972;42.134;24.718;2024-02-26T05:44:44;99345.28;;;11.09;100.00
11830;BME280;5972;42.134;24.718;2024-02-26T05:47:13;99351.41;;;11.06;100.00
11830;BME280;5972;42.134;24.718;2024-02-26T05:49:40;99332.41;;;11.03;100.00
11830;BME280;5972;42.134;24.718;2024-02-26T05:52:07;99326.34;;;10.94;100.00
11830;BME280;5972;42.134;24.718;2024-02-26T05:54:34;99353.34;;;11.06;100.00
11830;BME280;5972;42.134;24.718;2024-02-26T05:57:01;99351.16;;;11.11;100.00
11830;BME280;5972;42.134;24.718;2024-02-26T05:59:28;99356.81;;;11.22;100.00
11830;BME280;5972;42.134;24.718;2024-02-26T06:01:55;99334.03;;;11.07;100.00
11830;BME280;5972;42.134;24.718;2024-02-26T06:04:23;99358.84;;;11.25;100.00
11830;BME280;5972;42.134;24.718;2024-02-26T06:06:51;99371.50;;;11.37;100.00
11830;BME280;5972;42.134;24.718;2024-02-26T06:09:18;99367.63;;;11.38;100.00
11830;BME280;5972;42.134;24.718;2024-02-26T06:11:45;99361.00;;;11.35;100.00
11830;BME280;5972;42.134;24.718;2024-02-26T06:14:12;99369.53;;;11.53;100.00
11830;BME280;5972;42.134;24.718;2024-02-26T06:16:43;99363.50;;;11.44;100.00
11830;BME280;5972;42.134;24.718;2024-02-26T06:19:10;99381.22;;;11.57;100.00
11830;BME280;5972;42.134;24.718;2024-02-26T06:21:39;99358.53;;;11.46;100.00
11830;BME280;5972;42.134;24.718;2024-02-26T06:24:06;99358.97;;;11.48;100.00
11830;BME280;5972;42.134;24.718;2024-02-26T06:26:33;99374.75;;;11.61;100.00
11830;BME280;5972;42.134;24.718;2024-02-26T06:29:00;99385.75;;;11.68;100.00
11830;BME280;5972;42.134;24.718;2024-02-26T06:31:27;99379.28;;;11.73;100.00
11830;BME280;5972;42.134;24.718;2024-02-26T06:33:54;99386.06;;;11.83;100.00
11830;BME280;5972;42.134;24.718;2024-02-26T06:36:22;99391.72;;;11.93;100.00
11830;BME280;5972;42.134;24.718;2024-02-26T06:38:50;99394.53;;;11.97;100.00
11830;BME280;5972;42.134;24.718;2024-02-26T06:41:19;99397.47;;;12.07;100.00
11830;BME280;5972;42.134;24.718;2024-02-26T06:43:46;99392.38;;;12.06;100.00
11830;BME280;5972;42.134;24.718;2024-02-26T06:46:13;99398.75;;;12.14;100.00
11830;BME280;5972;42.134;24.718;2024-02-26T06:48:41;99377.13;;;11.98;100.00
11830;BME280;5972;42.134;24.718;2024-02-26T06:51:10;99398.38;;;12.15;100.00
11830;BME280;5972;42.134;24.718;2024-02-26T06:53:37;99403.25;;;12.25;100.00
11830;BME280;5972;42.134;24.718;2024-02-26T06:56:06;99401.81;;;12.31;100.00
11830;BME280;5972;42.134;24.718;2024-02-26T06:58:33;99405.59;;;12.27;100.00
11830;BME280;5972;42.134;24.718;2024-02-26T07:01:00;99405.66;;;12.30;100.00
11830;BME280;5972;42.134;24.718;2024-02-26T07:03:27;99402.78;;;12.04;100.00
11830;BME280;5972;42.134;24.718;2024-02-26T07:05:56;99402.56;;;11.93;100.00
11830;BME280;5972;42.134;24.718;2024-02-26T07:08:23;99409.88;;;12.08;100.00
11830;BME280;5972;42.134;24.718;2024-02-26T07:10:50;99401.28;;;11.87;100.00
11830;BME280;5972;42.134;24.718;2024-02-26T07:13:19;99410.22;;;12.07;100.00
11830;BME280;5972;42.134;24.718;2024-02-26T07:15:46;99409.09;;;12.08;100.00
11830;BME280;5972;42.134;24.718;2024-02-26T07:18:13;99400.44;;;11.67;100.00
11830;BME280;5972;42.134;24.718;2024-02-26T07:20:42;99400.41;;;11.83;100.00
11830;BME280;5972;42.134;24.718;2024-02-26T07:23:09;99393.28;;;11.75;100.00
11830;BME280;5972;42.134;24.718;2024-02-26T07:25:36;99382.16;;;11.80;100.00
11830;BME280;5972;42.134;24.718;2024-02-26T07:28:04;99390.88;;;11.89;100.00
11830;BME280;5972;42.134;24.718;2024-02-26T07:30:32;99404.88;;;12.11;100.00
11830;BME280;5972;42.134;24.718;2024-02-26T07:32:59;99411.09;;;12.30;100.00
11830;BME280;5972;42.134;24.718;2024-02-26T07:35:26;99411.00;;;12.46;100.00
11830;BME280;5972;42.134;24.718;2024-02-26T07:37:53;99407.44;;;12.42;100.00
11830;BME280;5972;42.134;24.718;2024-02-26T07:40:23;99406.06;;;12.52;100.00
11830;BME280;5972;42.134;24.718;2024-02-26T07:42:50;99411.16;;;12.53;100.00
11830;BME280;5972;42.134;24.718;2024-02-26T07:45:18;99403.72;;;12.50;100.00
11830;BME280;5972;42.134;24.718;2024-02-26T07:47:47;99388.88;;;12.44;100.00
11830;BME280;5972;42.134;24.718;2024-02-26T07:50:15;99401.72;;;12.47;100.00
11830;BME280;5972;42.134;24.718;2024-02-26T07:52:42;99400.59;;;12.48;100.00
11830;BME280;5972;42.134;24.718;2024-02-26T07:55:11;99398.47;;;12.61;100.00
11830;BME280;5972;42.134;24.718;2024-02-26T07:57:41;99373.69;;;12.62;100.00
11830;BME280;5972;42.134;24.718;2024-02-26T08:00:10;99395.78;;;12.83;100.00
11830;BME280;5972;42.134;24.718;2024-02-26T08:02:42;99386.97;;;12.67;100.00
11830;BME280;5972;42.134;24.718;2024-02-26T08:05:10;99358.81;;;12.53;100.00
11830;BME280;5972;42.134;24.718;2024-02-26T08:07:38;99398.50;;;12.83;100.00
11830;BME280;5972;42.134;24.718;2024-02-26T08:10:05;99359.53;;;12.72;100.00
11830;BME280;5972;42.134;24.718;2024-02-26T08:12:32;99395.09;;;12.86;100.00
11830;BME280;5972;42.134;24.718;2024-02-26T08:14:59;99404.84;;;12.91;100.00
11830;BME280;5972;42.134;24.718;2024-02-26T08:17:26;99412.44;;;13.05;100.00
11830;BME280;5972;42.134;24.718;2024-02-26T08:19:53;99409.72;;;13.24;100.00
11830;BME280;5972;42.134;24.718;2024-02-26T08:22:23;99385.13;;;13.17;100.00
11830;BME280;5972;42.134;24.718;2024-02-26T08:24:50;99396.41;;;13.42;100.00
11830;BME280;5972;42.134;24.718;2024-02-26T08:27:19;99373.41;;;13.36;100.00
11830;BME280;5972;42.134;24.718;2024-02-26T08:29:46;99403.34;;;13.65;100.00
11830;BME280;5972;42.134;24.718;2024-02-26T08:32:13;99405.44;;;13.76;100.00
11830;BME280;5972;42.134;24.718;2024-02-26T08:34:42;99374.34;;;13.47;100.00
11830;BME280;5972;42.134;24.718;2024-02-26T08:37:09;99414.69;;;13.71;100.00
11830;BME280;5972;42.134;24.718;2024-02-26T08:39:38;99385.22;;;13.77;100.00
11830;BME280;5972;42.134;24.718;2024-02-26T08:42:05;99410.84;;;14.02;100.00
11830;BME280;5972;42.134;24.718;2024-02-26T08:44:32;99409.19;;;14.24;100.00
11830;BME280;5972;42.134;24.718;2024-02-26T08:46:59;99379.47;;;14.41;100.00
11830;BME280;5972;42.134;24.718;2024-02-26T08:49:26;99328.66;;;14.19;100.00
11830;BME280;5972;42.134;24.718;2024-02-26T08:51:53;99384.72;;;14.61;100.00
11830;BME280;5972;42.134;24.718;2024-02-26T08:54:20;99344.09;;;14.41;100.00
11830;BME280;5972;42.134;24.718;2024-02-26T09:00:04;99353.25;;;14.63;100.00
11830;BME280;5972;42.134;24.718;2024-02-26T09:02:31;99390.09;;;14.90;100.00
11830;BME280;5972;42.134;24.718;2024-02-26T09:04:59;99395.09;;;14.85;100.00
11830;BME280;5972;42.134;24.718;2024-02-26T09:07:26;99399.16;;;15.05;100.00
11830;BME280;5972;42.134;24.718;2024-02-26T09:09:54;99387.44;;;15.01;100.00
11830;BME280;5972;42.134;24.718;2024-02-26T09:12:22;99395.78;;;15.22;100.00
11830;BME280;5972;42.134;24.718;2024-02-26T09:14:51;99393.41;;;15.17;100.00
11830;BME280;5972;42.134;24.718;2024-02-26T09:17:19;99400.59;;;15.39;100.00
11830;BME280;5972;42.134;24.718;2024-02-26T09:19:46;99397.13;;;15.43;100.00
11830;BME280;5972;42.134;24.718;2024-02-26T09:22:13;99392.94;;;15.56;100.00
11830;BME280;5972;42.134;24.718;2024-02-26T09:24:41;99369.38;;;15.30;100.00
11830;BME280;5972;42.134;24.718;2024-02-26T09:27:13;99395.38;;;15.64;100.00
11830;BME280;5972;42.134;24.718;2024-02-26T09:29:43;99314.44;;;15.21;100.00
11830;BME280;5972;42.134;24.718;2024-02-26T09:32:10;99317.66;;;15.37;100.00
11830;BME280;5972;42.134;24.718;2024-02-26T09:34:41;99336.72;;;15.37;100.00
11830;BME280;5972;42.134;24.718;2024-02-26T09:37:10;99367.66;;;15.59;100.00
11830;BME280;5972;42.134;24.718;2024-02-26T09:39:38;99351.59;;;15.50;100.00
11830;BME280;5972;42.134;24.718;2024-02-26T09:42:13;99272.16;;;14.90;100.00
11830;BME280;5972;42.134;24.718;2024-02-26T09:44:44;99373.50;;;15.61;100.00
11830;BME280;5972;42.134;24.718;2024-02-26T09:47:11;99367.41;;;15.85;100.00
11830;BME280;5972;42.134;24.718;2024-02-26T09:49:46;99371.78;;;16.04;100.00
11830;BME280;5972;42.134;24.718;2024-02-26T09:52:15;99358.91;;;15.97;100.00
11830;BME280;5972;42.134;24.718;2024-02-26T09:54:46;99375.31;;;16.04;100.00
11830;BME280;5972;42.134;24.718;2024-02-26T09:57:14;99344.09;;;15.98;100.00
11830;BME280;5972;42.134;24.718;2024-02-26T09:59:43;99353.56;;;16.33;100.00
11830;BME280;5972;42.134;24.718;2024-02-26T10:02:12;99366.06;;;16.41;100.00
11830;BME280;5972;42.134;24.718;2024-02-26T10:04:41;99292.25;;;16.02;100.00
11830;BME280;5972;42.134;24.718;2024-02-26T10:07:11;99337.22;;;16.57;100.00
11830;BME280;5972;42.134;24.718;2024-02-26T10:09:38;99363.44;;;16.80;100.00
11830;BME280;5972;42.134;24.718;2024-02-26T10:12:10;99341.97;;;16.89;100.00
11830;BME280;5972;42.134;24.718;2024-02-26T10:14:37;99351.75;;;16.97;99.77
11830;BME280;5972;42.134;24.718;2024-02-26T10:17:07;99349.78;;;17.33;97.05
11830;BME280;5972;42.134;24.718;2024-02-26T10:19:35;99327.13;;;17.15;92.07
11830;BME280;5972;42.134;24.718;2024-02-26T10:22:03;99346.28;;;17.04;92.88
11830;BME280;5972;42.134;24.718;2024-02-26T10:24:31;99340.78;;;17.29;94.24
11830;BME280;5972;42.134;24.718;2024-02-26T10:26:58;99322.06;;;17.20;93.90
11830;BME280;5972;42.134;24.718;2024-02-26T10:29:25;99326.31;;;17.39;92.01
11830;BME280;5972;42.134;24.718;2024-02-26T10:31:53;99307.63;;;16.74;95.90
11830;BME280;5972;42.134;24.718;2024-02-26T10:34:20;99318.13;;;16.54;95.18
11830;BME280;5972;42.134;24.718;2024-02-26T10:36:48;99337.69;;;16.77;94.59
11830;BME280;5972;42.134;24.718;2024-02-26T10:39:17;99311.09;;;16.56;97.41
11830;BME280;5972;42.134;24.718;2024-02-26T10:41:45;99189.16;;;15.49;98.05
11830;BME280;5972;42.134;24.718;2024-02-26T10:44:12;99231.47;;;16.15;96.91
11830;BME280;5972;42.134;24.718;2024-02-26T10:46:50;99256.78;;;16.05;98.73
11830;BME280;5972;42.134;24.718;2024-02-26T10:49:20;99309.09;;;16.25;100.00
11830;BME280;5972;42.134;24.718;2024-02-26T10:51:55;99314.66;;;16.75;95.86
11830;BME280;5972;42.134;24.718;2024-02-26T10:54:30;99306.84;;;17.05;91.81
11830;BME280;5972;42.134;24.718;2024-02-26T10:57:12;99239.97;;;17.34;86.59
11830;BME280;5972;42.134;24.718;2024-02-26T10:59:42;99293.28;;;18.03;81.97
11830;BME280;5972;42.134;24.718;2024-02-26T11:02:13;99260.34;;;18.17;78.00
11830;BME280;5972;42.134;24.718;2024-02-26T11:04:41;99285.59;;;18.46;75.62
11830;BME280;5972;42.134;24.718;2024-02-26T11:07:09;99264.00;;;18.00;74.40
11830;BME280;5972;42.134;24.718;2024-02-26T11:09:39;99283.53;;;17.98;73.10
11830;BME280;5972;42.134;24.718;2024-02-26T11:12:10;99285.78;;;18.17;71.65
11830;BME280;5972;42.134;24.718;2024-02-26T11:14:39;99280.06;;;17.91;72.31
11830;BME280;5972;42.134;24.718;2024-02-26T11:17:08;99280.19;;;17.55;75.65
11830;BME280;5972;42.134;24.718;2024-02-26T11:19:37;99281.75;;;17.49;76.99
11830;BME280;5972;42.134;24.718;2024-02-26T11:22:04;99276.31;;;17.28;78.39
11830;BME280;5972;42.134;24.718;2024-02-26T11:24:32;99268.56;;;17.16;79.20
11830;BME280;5972;42.134;24.718;2024-02-26T11:27:02;99262.25;;;17.29;77.52
11830;BME280;5972;42.134;24.718;2024-02-26T11:29:38;99262.59;;;17.60;75.06
11830;BME280;5972;42.134;24.718;2024-02-26T11:32:06;99254.75;;;17.58;74.43
11830;BME280;5972;42.134;24.718;2024-02-26T11:34:35;99133.94;;;16.76;72.92
11830;BME280;5972;42.134;24.718;2024-02-26T11:37:10;99247.00;;;17.39;73.14
11830;BME280;5972;42.134;24.718;2024-02-26T11:39:37;99244.22;;;17.64;71.46
11830;BME280;5972;42.134;24.718;2024-02-26T11:42:08;99249.41;;;17.16;72.88
11830;BME280;5972;42.134;24.718;2024-02-26T11:44:36;99243.22;;;16.66;73.92
11830;BME280;5972;42.134;24.718;2024-02-26T11:47:10;99245.56;;;16.71;73.05
11830;BME280;5972;42.134;24.718;2024-02-26T11:49:37;99242.06;;;16.63;75.30
11830;BME280;5972;42.134;24.718;2024-02-26T11:52:06;99241.22;;;16.34;77.54
11830;BME280;5972;42.134;24.718;2024-02-26T11:54:48;99242.41;;;16.37;78.31
11830;BME280;5972;42.134;24.718;2024-02-26T11:57:25;99235.41;;;16.53;78.80
11830;BME280;5972;42.134;24.718;2024-02-26T11:59:54;99210.44;;;16.48;77.75
11830;BME280;5972;42.134;24.718;2024-02-26T12:02:55;99223.31;;;16.79;76.88
11830;BME280;5972;42.134;24.718;2024-02-26T12:05:27;99214.72;;;16.84;76.62
11830;BME280;5972;42.134;24.718;2024-02-26T12:08:00;99238.91;;;16.47;79.23
11830;BME280;5972;42.134;24.718;2024-02-26T12:10:31;99226.84;;;16.66;79.43
11830;BME280;5972;42.134;24.718;2024-02-26T12:13:06;99219.78;;;16.89;77.12
11830;BME280;5972;42.134;24.718;2024-02-26T12:15:36;99224.03;;;17.12;74.84
11830;BME280;5972;42.134;24.718;2024-02-26T12:18:05;99214.25;;;17.18;74.76
11830;BME280;5972;42.134;24.718;2024-02-26T12:20:33;99198.63;;;17.22;73.56
11830;BME280;5972;42.134;24.718;2024-02-26T12:23:04;99207.28;;;16.92;75.57
11830;BME280;5972;42.134;24.718;2024-02-26T12:25:32;99211.53;;;17.07;77.70
11830;BME280;5972;42.134;24.718;2024-02-26T12:27:59;99164.31;;;16.96;74.66
11830;BME280;5972;42.134;24.718;2024-02-26T12:30:31;99204.72;;;17.61;70.81
11830;BME280;5972;42.134;24.718;2024-02-26T12:32:58;99211.06;;;17.33;71.62
11830;BME280;5972;42.134;24.718;2024-02-26T12:35:26;99205.81;;;17.78;70.49
11830;BME280;5972;42.134;24.718;2024-02-26T12:37:53;99174.16;;;17.80;68.53
11830;BME280;5972;42.134;24.718;2024-02-26T12:40:21;99176.03;;;17.94;67.60
11830;BME280;5972;42.134;24.718;2024-02-26T12:42:48;99199.31;;;18.20;67.12
11830;BME280;5972;42.134;24.718;2024-02-26T12:45:16;99149.56;;;17.77;66.44
11830;BME280;5972;42.134;24.718;2024-02-26T12:47:50;99197.16;;;17.90;68.73
11830;BME280;5972;42.134;24.718;2024-02-26T12:50:21;99206.69;;;17.64;69.58
11830;BME280;5972;42.134;24.718;2024-02-26T12:52:49;99136.13;;;17.20;70.17
11830;BME280;5972;42.134;24.718;2024-02-26T12:55:20;99197.69;;;17.57;70.55
11830;BME280;5972;42.134;24.718;2024-02-26T12:57:50;99158.31;;;17.36;70.04
11830;BME280;5972;42.134;24.718;2024-02-26T13:00:24;99191.44;;;17.63;70.25